createdAt,value
2022-09-22T00:02:07.170Z,96127.56
2022-09-22T00:05:08.993Z,96138.63
2022-09-22T00:08:10.609Z,96135.19
2022-09-22T00:11:14.875Z,96132.50
2022-09-22T00:14:18.937Z,96125.22
2022-09-22T00:17:20.620Z,96123.66
2022-09-22T00:20:22.416Z,96128.50
2022-09-22T00:23:24.834Z,96120.88
2022-09-22T00:26:27.976Z,96116.06
2022-09-22T00:29:30.254Z,96115.41
2022-09-22T00:32:31.970Z,96118.78
2022-09-22T00:35:33.633Z,96116.63
2022-09-22T00:38:35.281Z,96120.22
2022-09-22T00:41:40.065Z,96115.16
2022-09-22T00:44:42.220Z,96113.94
2022-09-22T00:47:45.244Z,96110.53
2022-09-22T00:50:47.439Z,96109.66
2022-09-22T00:53:49.683Z,96098.41
2022-09-22T00:56:54.125Z,96091.50
2022-09-22T00:59:55.805Z,96091.50
2022-09-22T01:02:59.178Z,96094.78
2022-09-22T01:06:03.049Z,96093.03
2022-09-22T01:09:05.408Z,96095.13
2022-09-22T01:12:08.669Z,96088.56
2022-09-22T01:15:23.692Z,96086.69
2022-09-22T01:18:29.741Z,96079.41
2022-09-22T01:21:36.202Z,96085.59
2022-09-22T01:24:54.078Z,96081.22
2022-09-22T01:28:15.234Z,96074.97
2022-09-22T01:31:21.491Z,96073.75
2022-09-22T01:34:27.735Z,96077.75
2022-09-22T01:37:35.765Z,96076.88
2022-09-22T01:40:41.873Z,96069.28
2022-09-22T01:43:47.852Z,96070.97
2022-09-22T01:46:53.026Z,96059.66
2022-09-22T01:49:58.560Z,96068.94
2022-09-22T01:53:03.467Z,96062.22
2022-09-22T01:56:08.581Z,96066.13
2022-09-22T01:59:11.526Z,96055.88
2022-09-22T02:02:17.825Z,96053.88
2022-09-22T02:05:22.746Z,96064.44
2022-09-22T02:08:26.996Z,96061.91
2022-09-22T02:11:28.654Z,96064.22
2022-09-22T02:14:30.298Z,96058.56
2022-09-22T02:17:35.458Z,96065.44
2022-09-22T02:20:37.671Z,96059.19
2022-09-22T02:23:39.393Z,96065.25
2022-09-22T02:26:41.095Z,96054.41
2022-09-22T02:29:44.724Z,96060.22
2022-09-22T02:32:48.958Z,96054.19
2022-09-22T02:35:54.610Z,96059.53
2022-09-22T02:39:00.424Z,96057.06
2022-09-22T02:42:10.565Z,96062.13
2022-09-22T02:45:13.948Z,96061.47
2022-09-22T02:48:19.817Z,96054.34
2022-09-22T02:51:22.038Z,96045.94
2022-09-22T02:54:23.623Z,96061.03
2022-09-22T02:57:25.374Z,96060.88
2022-09-22T03:00:27.015Z,96060.00
2022-09-22T03:03:30.099Z,96062.31
2022-09-22T03:06:31.735Z,96058.59
2022-09-22T03:09:33.371Z,96049.97
2022-09-22T03:12:35.077Z,96052.03
2022-09-22T03:15:36.734Z,96048.34
2022-09-22T03:18:39.755Z,96048.38
2022-09-22T03:21:41.378Z,96050.72
2022-09-22T03:24:43.005Z,96048.16
2022-09-22T03:27:44.651Z,96044.56
2022-09-22T03:30:46.361Z,96047.53
2022-09-22T03:33:52.739Z,96035.00
2022-09-22T03:36:54.655Z,96038.38
2022-09-22T03:39:56.284Z,96042.94
2022-09-22T03:42:57.910Z,96046.63
2022-09-22T03:46:00.253Z,96045.97
2022-09-22T03:49:03.314Z,96040.06
2022-09-22T03:52:04.982Z,96034.28
2022-09-22T03:55:07.327Z,96034.84
2022-09-22T03:58:08.940Z,96026.81
2022-09-22T04:01:11.020Z,96021.13
2022-09-22T04:04:14.097Z,96006.50
2022-09-22T04:07:15.712Z,96017.44
2022-09-22T04:10:17.362Z,96027.16
2022-09-22T04:13:18.975Z,96028.81
2022-09-22T04:16:20.945Z,96034.41
2022-09-22T04:19:23.992Z,96044.13
2022-09-22T04:22:25.629Z,96040.22
2022-09-22T04:25:27.268Z,96039.53
2022-09-22T04:28:29.127Z,96042.69
2022-09-22T04:31:30.761Z,96046.91
2022-09-22T04:34:33.872Z,96050.69
2022-09-22T04:37:35.514Z,96046.47
2022-09-22T04:40:37.182Z,96054.69
2022-09-22T04:43:38.848Z,96051.94
2022-09-22T04:46:40.431Z,96051.47
2022-09-22T04:49:43.444Z,96041.25
2022-09-22T04:52:45.452Z,96042.84
2022-09-22T04:55:47.147Z,96036.81
2022-09-22T04:58:48.766Z,96032.16
2022-09-22T05:01:50.353Z,96041.09
2022-09-22T05:04:53.453Z,96035.94
2022-09-22T05:07:55.094Z,96043.34
2022-09-22T05:10:56.724Z,96043.09
2022-09-22T05:13:58.356Z,96051.13
2022-09-22T05:17:00.057Z,96058.75
2022-09-22T05:20:04.000Z,96059.44
2022-09-22T05:23:07.033Z,96055.38
2022-09-22T05:26:08.640Z,96057.63
2022-09-22T05:29:10.323Z,96056.22
2022-09-22T05:32:11.926Z,96061.00
2022-09-22T05:35:16.200Z,96053.19
2022-09-22T05:38:17.933Z,96059.53
2022-09-22T05:41:19.617Z,96058.63
2022-09-22T05:44:21.318Z,96060.00
2022-09-22T05:47:23.034Z,96061.78
2022-09-22T05:50:26.056Z,96064.56
2022-09-22T05:53:27.721Z,96067.25
2022-09-22T05:56:31.167Z,96068.59
2022-09-22T05:59:32.994Z,96070.59
2022-09-22T06:02:34.704Z,96077.97
2022-09-22T06:05:39.457Z,96077.44
2022-09-22T06:08:45.128Z,96077.44
2022-09-22T06:11:50.119Z,96079.31
2022-09-22T06:14:51.829Z,96084.13
2022-09-22T06:17:53.438Z,96071.03
2022-09-22T06:20:56.429Z,96068.47
2022-09-22T06:23:58.147Z,96075.19
2022-09-22T06:26:59.897Z,96079.63
2022-09-22T06:30:01.545Z,96075.94
2022-09-22T06:33:03.306Z,96076.50
2022-09-22T06:36:07.681Z,96076.13
2022-09-22T06:39:09.436Z,96082.81
2022-09-22T06:42:11.061Z,96081.03
2022-09-22T06:45:12.814Z,96080.25
2022-09-22T06:48:14.481Z,96076.44
2022-09-22T06:51:17.512Z,96083.03
2022-09-22T06:54:21.401Z,96086.25
2022-09-22T06:57:24.690Z,96083.34
2022-09-22T07:00:27.219Z,96079.66
2022-09-22T07:03:28.895Z,96078.72
2022-09-22T07:06:31.918Z,96080.22
2022-09-22T07:09:33.548Z,96081.88
2022-09-22T07:12:35.147Z,96078.59
2022-09-22T07:15:37.093Z,96070.31
2022-09-22T07:18:39.318Z,96084.69
2022-09-22T07:21:42.300Z,96082.53
2022-09-22T07:24:44.038Z,96087.75
2022-09-22T07:27:45.691Z,96085.25
2022-09-22T07:30:47.317Z,96086.47
2022-09-22T07:33:49.249Z,96084.56
2022-09-22T07:36:52.287Z,96079.59
2022-09-22T07:39:53.953Z,96086.31
2022-09-22T07:42:55.662Z,96088.03
2022-09-22T07:45:57.362Z,96086.13
2022-09-22T07:48:58.977Z,96080.56
2022-09-22T07:52:02.020Z,96072.41
2022-09-22T07:55:03.813Z,96076.03
2022-09-22T07:58:05.437Z,96078.22
2022-09-22T08:01:07.887Z,96082.09
2022-09-22T08:04:09.602Z,96081.59
2022-09-22T08:07:12.632Z,96088.63
2022-09-22T08:10:14.478Z,96083.84
2022-09-22T08:13:16.121Z,96089.13
2022-09-22T08:16:17.807Z,96083.19
2022-09-22T08:19:19.683Z,96084.81
2022-09-22T08:22:22.713Z,96089.84
2022-09-22T08:25:24.341Z,96086.38
2022-09-22T08:28:25.952Z,96093.47
2022-09-22T08:31:27.671Z,96088.25
2022-09-22T08:34:29.374Z,96088.75
2022-09-22T08:37:32.478Z,96097.19
2022-09-22T08:40:35.135Z,96084.69
2022-09-22T08:43:43.483Z,96093.03
2022-09-22T08:46:46.635Z,96083.16
2022-09-22T08:49:51.252Z,96085.63
2022-09-22T08:52:55.448Z,96077.53
2022-09-22T08:56:01.421Z,96083.50
2022-09-22T08:59:06.792Z,96087.19
2022-09-22T09:02:25.289Z,96084.81
2022-09-22T09:05:45.634Z,96088.13
2022-09-22T09:09:07.574Z,96089.16
2022-09-22T09:12:27.117Z,96096.78
2022-09-22T09:15:33.821Z,96091.09
2022-09-22T09:18:38.800Z,96090.25
2022-09-22T09:21:41.832Z,96090.44
2022-09-22T09:28:12.901Z,96090.03
2022-09-22T09:31:19.055Z,96087.03
2022-09-22T09:34:22.588Z,96091.75
2022-09-22T09:37:24.419Z,96090.13
2022-09-22T09:40:27.967Z,96092.81
2022-09-22T09:43:30.615Z,96095.88
2022-09-22T09:46:39.704Z,96087.34
2022-09-22T09:49:41.606Z,96086.50
2022-09-22T09:52:43.330Z,96085.97
2022-09-22T09:55:46.340Z,96088.66
2022-09-22T09:58:54.772Z,96086.13
2022-09-22T10:01:56.653Z,96079.59
2022-09-22T10:05:00.455Z,96088.19
2022-09-22T10:08:03.132Z,96090.13
2022-09-22T10:11:06.534Z,96083.59
2022-09-22T10:14:17.231Z,96077.25
2022-09-22T10:17:22.789Z,96079.22
2022-09-22T10:20:25.789Z,96085.72
2022-09-22T10:23:27.532Z,96082.69
2022-09-22T10:26:31.226Z,96079.16
2022-09-22T10:29:32.815Z,96072.31
2022-09-22T10:32:34.438Z,96078.94
2022-09-22T10:35:36.338Z,96071.72
2022-09-22T10:41:42.971Z,96064.72
2022-09-22T10:44:48.538Z,96071.34
2022-09-22T10:47:56.562Z,96069.09
2022-09-22T10:51:03.880Z,96065.00
2022-09-22T10:54:20.143Z,96068.09
2022-09-22T10:57:27.347Z,96064.00
2022-09-22T11:00:35.271Z,96057.78
2022-09-22T11:03:50.476Z,96062.44
2022-09-22T11:07:01.597Z,96064.50
2022-09-22T11:10:07.043Z,96056.66
2022-09-22T11:13:16.536Z,96064.34
2022-09-22T11:16:33.216Z,96053.50
2022-09-22T11:19:42.603Z,96061.94
2022-09-22T11:22:52.961Z,96053.81
2022-09-22T11:26:02.001Z,96054.31
2022-09-22T11:29:21.573Z,96050.44
2022-09-22T11:32:33.970Z,96043.59
2022-09-22T11:35:50.220Z,96047.19
2022-09-22T11:39:00.174Z,96039.44
2022-09-22T11:42:07.266Z,96030.97
2022-09-22T11:45:17.543Z,96031.38
2022-09-22T11:48:27.119Z,96028.25
2022-09-22T11:51:39.253Z,96013.53
2022-09-22T11:54:50.697Z,96015.91
2022-09-22T11:57:55.804Z,96016.72
2022-09-22T12:01:01.829Z,96015.16
2022-09-22T12:04:06.965Z,96008.56
2022-09-22T12:07:09.930Z,96004.69
2022-09-22T12:10:15.798Z,96002.75
2022-09-22T12:13:18.748Z,96007.81
2022-09-22T12:16:24.966Z,95995.78
2022-09-22T12:19:32.306Z,95991.16
2022-09-22T12:22:37.509Z,95994.25
2022-09-22T12:25:48.571Z,95986.88
2022-09-22T12:28:51.085Z,95988.41
2022-09-22T12:31:55.261Z,95983.78
2022-09-22T12:34:58.200Z,95979.53
2022-09-22T12:38:01.289Z,95980.63
2022-09-22T12:41:03.386Z,95980.25
2022-09-22T12:44:08.191Z,95979.50
2022-09-22T12:47:20.022Z,95977.97
2022-09-22T12:50:33.193Z,95966.69
2022-09-22T12:53:34.798Z,95966.28
2022-09-22T12:56:43.303Z,95968.22
2022-09-22T12:59:55.301Z,95964.66
2022-09-22T13:02:58.311Z,95967.00
2022-09-22T13:06:00.683Z,95958.09
2022-09-22T13:09:09.132Z,95961.97
2022-09-22T13:12:26.255Z,95951.84
2022-09-22T13:15:28.709Z,95959.25
2022-09-22T13:18:32.931Z,95954.19
2022-09-22T13:21:34.544Z,95951.09
2022-09-22T13:24:36.161Z,95959.13
2022-09-22T13:27:37.790Z,95946.66
2022-09-22T13:30:40.674Z,95945.94
2022-09-22T13:33:43.743Z,95943.56
2022-09-22T13:36:45.624Z,95936.97
2022-09-22T13:39:48.393Z,95939.88
2022-09-22T13:42:50.035Z,95940.75
2022-09-22T13:45:52.062Z,95938.22
2022-09-22T13:48:57.063Z,95941.28
2022-09-22T13:52:01.107Z,95933.50
2022-09-22T13:55:06.217Z,95928.34
2022-09-22T13:58:12.145Z,95935.38
2022-09-22T14:01:15.267Z,95932.16
2022-09-22T14:04:22.343Z,95925.41
2022-09-22T14:07:26.646Z,95923.28
2022-09-22T14:10:28.384Z,95922.28
2022-09-22T14:13:36.580Z,95919.94
2022-09-22T14:16:45.632Z,95921.09
2022-09-22T14:19:53.303Z,95906.94
2022-09-22T14:22:56.185Z,95907.91
2022-09-22T14:25:59.003Z,95909.66
2022-09-22T14:29:08.184Z,95911.19
2022-09-22T14:32:14.866Z,95904.84
2022-09-22T14:35:23.190Z,95907.53
2022-09-22T14:38:24.994Z,95906.31
2022-09-22T14:41:27.487Z,95906.56
2022-09-22T14:44:37.574Z,95901.28
2022-09-22T14:47:39.743Z,95903.63
2022-09-22T14:50:45.344Z,95896.63
2022-09-22T14:53:47.988Z,95900.06
2022-09-22T14:56:49.588Z,95902.69
2022-09-22T14:59:53.461Z,95899.91
2022-09-22T15:02:56.116Z,95905.31
2022-09-22T15:06:06.614Z,95898.13
2022-09-22T15:09:22.530Z,95901.44
2022-09-22T15:12:35.013Z,95899.13
2022-09-22T15:15:44.627Z,95893.22
2022-09-22T15:18:46.536Z,95894.34
2022-09-22T15:21:49.710Z,95889.91
2022-09-22T15:24:51.666Z,95890.13
2022-09-22T15:27:53.348Z,95890.19
2022-09-22T15:30:55.032Z,95889.72
2022-09-22T15:33:57.728Z,95889.06
2022-09-22T15:37:00.734Z,95883.44
2022-09-22T15:40:06.106Z,95892.66
2022-09-22T15:43:13.031Z,95885.13
2022-09-22T15:46:24.122Z,95885.72
2022-09-22T15:49:26.568Z,95883.66
2022-09-22T15:52:30.079Z,95885.16
2022-09-22T15:55:33.197Z,95887.03
2022-09-22T15:58:39.443Z,95888.88
2022-09-22T16:01:41.126Z,95883.50
2022-09-22T16:04:42.748Z,95881.50
2022-09-22T16:07:48.213Z,95881.00
2022-09-22T16:10:49.925Z,95880.94
2022-09-22T16:13:51.490Z,95885.91
2022-09-22T16:16:53.089Z,95890.63
2022-09-22T16:19:54.670Z,95885.72
2022-09-22T16:22:57.665Z,95887.38
2022-09-22T16:25:59.282Z,95882.56
2022-09-22T16:29:01.272Z,95880.28
2022-09-22T16:32:02.924Z,95877.09
2022-09-22T16:35:04.946Z,95877.03
2022-09-22T16:38:08.013Z,95877.09
2022-09-22T16:41:18.005Z,95874.03
2022-09-22T16:44:19.669Z,95882.97
2022-09-22T16:47:21.333Z,95879.38
2022-09-22T16:50:22.904Z,95883.03
2022-09-22T16:53:25.908Z,95882.13
2022-09-22T16:56:28.394Z,95885.81
2022-09-22T16:59:29.956Z,95891.47
2022-09-22T17:02:31.567Z,95891.66
2022-09-22T17:05:33.173Z,95889.00
2022-09-22T17:08:36.874Z,95886.09
2022-09-22T17:11:39.429Z,95890.38
2022-09-22T17:14:41.042Z,95895.94
2022-09-22T17:17:42.815Z,95903.81
2022-09-22T17:20:44.419Z,95902.31
2022-09-22T17:23:48.289Z,95894.56
2022-09-22T17:26:51.262Z,95898.50
2022-09-22T17:29:52.920Z,95898.88
2022-09-22T17:32:54.533Z,95904.72
2022-09-22T17:35:56.703Z,95907.41
2022-09-22T17:39:00.733Z,95908.94
2022-09-22T17:42:02.376Z,95910.06
2022-09-22T17:45:04.319Z,95920.44
2022-09-22T17:48:06.009Z,95914.13
2022-09-22T17:51:25.870Z,95920.97
2022-09-22T17:54:29.691Z,95920.31
2022-09-22T17:57:32.319Z,95921.56
2022-09-22T18:00:34.013Z,95924.00
2022-09-22T18:03:35.581Z,95915.03
2022-09-22T18:06:37.203Z,95923.19
2022-09-22T18:09:40.391Z,95917.59
2022-09-22T18:12:42.533Z,95920.81
2022-09-22T18:15:44.250Z,95913.03
2022-09-22T18:18:45.894Z,95914.59
2022-09-22T18:21:47.684Z,95917.38
2022-09-22T18:24:51.617Z,95920.59
2022-09-22T18:27:53.247Z,95922.38
2022-09-22T18:30:54.957Z,95919.22
2022-09-22T18:33:57.223Z,95925.28
2022-09-22T18:36:58.972Z,95926.22
2022-09-22T18:40:02.578Z,95929.91
2022-09-22T18:43:04.422Z,95924.69
2022-09-22T18:46:06.060Z,95930.06
2022-09-22T18:49:08.005Z,95933.13
2022-09-22T18:52:09.819Z,95927.50
2022-09-22T18:55:12.963Z,95927.03
2022-09-22T18:58:14.752Z,95936.09
2022-09-22T19:01:16.664Z,95933.00
2022-09-22T19:04:19.490Z,95932.84
2022-09-22T19:07:21.279Z,95935.84
2022-09-22T19:10:24.469Z,95941.56
2022-09-22T19:13:26.315Z,95938.06
2022-09-22T19:16:28.047Z,95941.31
2022-09-22T19:19:29.889Z,95939.97
2022-09-22T19:22:31.519Z,95937.28
2022-09-22T19:25:34.515Z,95939.94
2022-09-22T19:28:36.241Z,95937.00
2022-09-22T19:31:38.637Z,95928.63
2022-09-22T19:34:40.279Z,95932.88
2022-09-22T19:37:41.980Z,95932.38
2022-09-22T19:40:45.002Z,95927.75
2022-09-22T19:43:46.939Z,95925.56
2022-09-22T19:46:49.344Z,95925.06
2022-09-22T19:49:51.287Z,95922.78
2022-09-22T19:52:53.003Z,95917.91
2022-09-22T19:55:56.064Z,95921.25
2022-09-22T19:58:57.712Z,95922.09
2022-09-22T20:01:59.403Z,95916.59
2022-09-22T20:05:01.034Z,95917.50
2022-09-22T20:08:02.871Z,95919.44
2022-09-22T20:11:23.024Z,95915.53
2022-09-22T20:14:27.814Z,95921.03
2022-09-22T20:17:29.529Z,95918.22
2022-09-22T20:20:31.119Z,95906.09
2022-09-22T20:23:33.588Z,95914.25
2022-09-22T20:26:36.574Z,95914.34
2022-09-22T20:29:38.192Z,95908.28
2022-09-22T20:32:39.761Z,95913.94
2022-09-22T20:35:41.409Z,95905.06
2022-09-22T20:38:43.020Z,95898.75
2022-09-22T20:41:46.046Z,95899.91
2022-09-22T20:44:47.785Z,95898.88
2022-09-22T20:47:49.521Z,95901.63
2022-09-22T20:50:54.683Z,95898.78
2022-09-22T20:53:56.325Z,95894.53
2022-09-22T20:56:59.479Z,95890.69
2022-09-22T21:00:01.279Z,95897.63
2022-09-22T21:03:03.052Z,95896.50
2022-09-22T21:06:05.884Z,95887.31
2022-09-22T21:09:08.789Z,95893.44
2022-09-22T21:12:11.771Z,95887.84
2022-09-22T21:15:13.738Z,95896.06
2022-09-22T21:18:15.406Z,95886.00
2022-09-22T21:21:17.733Z,95890.97
2022-09-22T21:24:19.418Z,95894.91
2022-09-22T21:27:22.784Z,95895.31
2022-09-22T21:30:24.419Z,95893.44
2022-09-22T21:33:26.593Z,95884.78
2022-09-22T21:36:28.292Z,95882.47
2022-09-22T21:39:29.973Z,95881.81
2022-09-22T21:42:33.030Z,95886.53
2022-09-22T21:45:34.679Z,95886.28
2022-09-22T21:48:36.688Z,95886.94
2022-09-22T21:51:39.153Z,95888.16
2022-09-22T21:54:40.731Z,95881.53
2022-09-22T21:57:43.707Z,95882.09
2022-09-22T22:00:52.116Z,95878.13
2022-09-22T22:03:55.454Z,95881.34
2022-09-22T22:06:57.065Z,95875.81
2022-09-22T22:09:58.628Z,95882.63
2022-09-22T22:13:01.647Z,95882.34
2022-09-22T22:16:03.808Z,95882.34
2022-09-22T22:19:05.562Z,95881.81
2022-09-22T22:22:07.244Z,95886.53
2022-09-22T22:25:09.026Z,95881.47
2022-09-22T22:28:12.389Z,95872.94
2022-09-22T22:31:14.956Z,95869.50
2022-09-22T22:34:17.788Z,95869.53
2022-09-22T22:37:19.367Z,95869.13
2022-09-22T22:40:21.120Z,95864.88
2022-09-22T22:43:24.110Z,95867.28
2022-09-22T22:46:25.778Z,95858.88
2022-09-22T22:49:27.429Z,95857.06
2022-09-22T22:52:29.150Z,95862.66
2022-09-22T22:55:30.901Z,95859.09
2022-09-22T22:58:34.716Z,95859.84
2022-09-22T23:01:38.258Z,95859.84
2022-09-22T23:04:39.873Z,95857.69
2022-09-22T23:07:41.492Z,95851.94
2022-09-22T23:10:43.150Z,95847.03
2022-09-22T23:13:47.570Z,95843.97
2022-09-22T23:16:49.345Z,95843.38
2022-09-22T23:19:51.103Z,95832.97
2022-09-22T23:22:52.714Z,95834.53
2022-09-22T23:25:54.321Z,95833.66
2022-09-22T23:28:57.518Z,95825.97
2022-09-22T23:31:59.161Z,95820.53
2022-09-22T23:35:00.758Z,95823.63
2022-09-22T23:38:02.643Z,95825.44
2022-09-22T23:41:04.670Z,95819.72
2022-09-22T23:44:07.705Z,95819.63
2022-09-22T23:47:12.188Z,95818.16
2022-09-22T23:50:15.969Z,95815.03
2022-09-22T23:53:18.365Z,95813.03
2022-09-22T23:56:19.981Z,95813.88
2022-09-22T23:59:22.987Z,95808.78
